sensor_id;sensor_type;location;lat;lon;timestamp;temperature;humidity
46608;DHT22;32330;51.936;7.184;2023-12-20T00:02:13;7.40;99.90
46608;DHT22;32330;51.936;7.184;2023-12-20T00:04:40;7.40;99.90
46608;DHT22;32330;51.936;7.184;2023-12-20T00:07:07;7.40;99.90
46608;DHT22;32330;51.936;7.184;2023-12-20T00:09:33;7.30;99.90
46608;DHT22;32330;51.936;7.184;2023-12-20T00:12:00;7.40;99.90
46608;DHT22;32330;51.936;7.184;2023-12-20T00:14:28;7.30;99.90
46608;DHT22;32330;51.936;7.184;2023-12-20T00:16:54;7.30;99.90
46608;DHT22;32330;51.936;7.184;2023-12-20T00:19:23;7.40;99.90
46608;DHT22;32330;51.936;7.184;2023-12-20T00:21:49;7.30;99.90
46608;DHT22;32330;51.936;7.184;2023-12-20T00:24:16;7.30;99.90
46608;DHT22;32330;51.936;7.184;2023-12-20T00:26:43;7.30;99.90
46608;DHT22;32330;51.936;7.184;2023-12-20T00:29:10;7.20;99.90
46608;DHT22;32330;51.936;7.184;2023-12-20T00:31:37;7.20;99.90
46608;DHT22;32330;51.936;7.184;2023-12-20T00:34:04;7.20;99.90
46608;DHT22;32330;51.936;7.184;2023-12-20T00:36:32;7.20;99.90
46608;DHT22;32330;51.936;7.184;2023-12-20T00:38:59;7.10;99.90
46608;DHT22;32330;51.936;7.184;2023-12-20T00:41:26;7.10;99.90
46608;DHT22;32330;51.936;7.184;2023-12-20T00:43:53;7.10;99.90
46608;DHT22;32330;51.936;7.184;2023-12-20T00:46:20;7.10;99.90
46608;DHT22;32330;51.936;7.184;2023-12-20T00:48:47;7.10;99.90
46608;DHT22;32330;51.936;7.184;2023-12-20T00:51:14;7.00;99.90
46608;DHT22;32330;51.936;7.184;2023-12-20T00:53:42;7.00;99.90
46608;DHT22;32330;51.936;7.184;2023-12-20T00:56:09;7.00;99.90
46608;DHT22;32330;51.936;7.184;2023-12-20T00:58:36;6.90;99.90
46608;DHT22;32330;51.936;7.184;2023-12-20T01:01:03;6.90;99.90
46608;DHT22;32330;51.936;7.184;2023-12-20T01:03:30;6.90;99.90
46608;DHT22;32330;51.936;7.184;2023-12-20T01:05:57;6.80;99.90
46608;DHT22;32330;51.936;7.184;2023-12-20T01:08:24;6.80;99.90
46608;DHT22;32330;51.936;7.184;2023-12-20T01:10:52;6.70;99.90
46608;DHT22;32330;51.936;7.184;2023-12-20T01:13:19;6.70;99.90
46608;DHT22;32330;51.936;7.184;2023-12-20T01:15:46;6.70;99.90
46608;DHT22;32330;51.936;7.184;2023-12-20T01:18:13;6.70;99.90
46608;DHT22;32330;51.936;7.184;2023-12-20T01:20:40;6.70;99.90
46608;DHT22;32330;51.936;7.184;2023-12-20T01:23:08;6.60;99.90
46608;DHT22;32330;51.936;7.184;2023-12-20T01:25:35;6.70;99.90
46608;DHT22;32330;51.936;7.184;2023-12-20T01:28:04;6.60;99.90
46608;DHT22;32330;51.936;7.184;2023-12-20T01:30:31;6.60;99.90
46608;DHT22;32330;51.936;7.184;2023-12-20T01:32:59;6.50;99.90
46608;DHT22;32330;51.936;7.184;2023-12-20T01:35:26;6.60;99.90
46608;DHT22;32330;51.936;7.184;2023-12-20T01:37:53;6.60;99.90
46608;DHT22;32330;51.936;7.184;2023-12-20T01:40:22;6.50;99.90
46608;DHT22;32330;51.936;7.184;2023-12-20T01:42:58;6.50;99.90
46608;DHT22;32330;51.936;7.184;2023-12-20T01:45:26;6.50;99.90
46608;DHT22;32330;51.936;7.184;2023-12-20T01:47:53;6.50;99.90
46608;DHT22;32330;51.936;7.184;2023-12-20T01:50:21;6.40;99.90
46608;DHT22;32330;51.936;7.184;2023-12-20T01:52:48;6.40;99.90
46608;DHT22;32330;51.936;7.184;2023-12-20T01:55:18;6.40;99.90
46608;DHT22;32330;51.936;7.184;2023-12-20T01:57:45;6.30;99.90
46608;DHT22;32330;51.936;7.184;2023-12-20T02:00:13;6.30;99.90
46608;DHT22;32330;51.936;7.184;2023-12-20T02:02:43;6.20;99.90
46608;DHT22;32330;51.936;7.184;2023-12-20T02:05:12;6.30;99.90
46608;DHT22;32330;51.936;7.184;2023-12-20T02:07:39;6.20;99.90
46608;DHT22;32330;51.936;7.184;2023-12-20T02:10:06;6.20;99.90
46608;DHT22;32330;51.936;7.184;2023-12-20T02:12:33;6.20;99.90
46608;DHT22;32330;51.936;7.184;2023-12-20T02:15:01;6.20;99.90
46608;DHT22;32330;51.936;7.184;2023-12-20T02:17:28;6.10;99.90
46608;DHT22;32330;51.936;7.184;2023-12-20T02:19:57;6.10;99.90
46608;DHT22;32330;51.936;7.184;2023-12-20T02:22:26;6.10;99.90
46608;DHT22;32330;51.936;7.184;2023-12-20T02:24:53;6.10;99.90
46608;DHT22;32330;51.936;7.184;2023-12-20T02:27:20;6.10;99.90
46608;DHT22;32330;51.936;7.184;2023-12-20T02:29:47;6.10;99.90
46608;DHT22;32330;51.936;7.184;2023-12-20T02:32:14;6.00;99.90
46608;DHT22;32330;51.936;7.184;2023-12-20T02:34:42;6.00;99.90
46608;DHT22;32330;51.936;7.184;2023-12-20T02:37:09;6.00;99.90
46608;DHT22;32330;51.936;7.184;2023-12-20T02:39:37;6.00;99.90
46608;DHT22;32330;51.936;7.184;2023-12-20T02:42:04;6.00;99.90
46608;DHT22;32330;51.936;7.184;2023-12-20T02:44:31;6.00;99.90
46608;DHT22;32330;51.936;7.184;2023-12-20T02:46:58;5.90;99.90
46608;DHT22;32330;51.936;7.184;2023-12-20T02:49:25;5.90;99.90
46608;DHT22;32330;51.936;7.184;2023-12-20T02:51:51;5.90;99.90
46608;DHT22;32330;51.936;7.184;2023-12-20T02:54:18;5.90;99.90
46608;DHT22;32330;51.936;7.184;2023-12-20T02:56:47;5.90;99.90
46608;DHT22;32330;51.936;7.184;2023-12-20T02:59:14;5.90;99.90
46608;DHT22;32330;51.936;7.184;2023-12-20T03:01:43;5.90;99.90
46608;DHT22;32330;51.936;7.184;2023-12-20T03:04:10;5.90;99.90
46608;DHT22;32330;51.936;7.184;2023-12-20T03:06:37;5.90;99.90
46608;DHT22;32330;51.936;7.184;2023-12-20T03:09:04;5.90;99.90
46608;DHT22;32330;51.936;7.184;2023-12-20T03:11:31;5.90;99.90
46608;DHT22;32330;51.936;7.184;2023-12-20T03:13:59;5.80;99.90
46608;DHT22;32330;51.936;7.184;2023-12-20T03:16:26;5.80;99.90
46608;DHT22;32330;51.936;7.184;2023-12-20T03:18:53;5.80;99.90
46608;DHT22;32330;51.936;7.184;2023-12-20T03:21:20;5.80;99.90
46608;DHT22;32330;51.936;7.184;2023-12-20T03:23:47;5.80;99.90
46608;DHT22;32330;51.936;7.184;2023-12-20T03:26:14;5.80;99.90
46608;DHT22;32330;51.936;7.184;2023-12-20T03:28:41;5.80;99.90
46608;DHT22;32330;51.936;7.184;2023-12-20T03:31:11;5.80;99.90
46608;DHT22;32330;51.936;7.184;2023-12-20T03:33:37;5.80;99.90
46608;DHT22;32330;51.936;7.184;2023-12-20T03:36:05;5.80;99.90
46608;DHT22;32330;51.936;7.184;2023-12-20T03:38:32;5.80;99.90
46608;DHT22;32330;51.936;7.184;2023-12-20T03:40:58;5.80;99.90
46608;DHT22;32330;51.936;7.184;2023-12-20T03:43:25;5.70;99.90
46608;DHT22;32330;51.936;7.184;2023-12-20T03:45:52;5.70;99.90
46608;DHT22;32330;51.936;7.184;2023-12-20T03:48:21;5.70;99.90
46608;DHT22;32330;51.936;7.184;2023-12-20T03:50:47;5.70;99.90
46608;DHT22;32330;51.936;7.184;2023-12-20T03:53:14;5.70;99.90
46608;DHT22;32330;51.936;7.184;2023-12-20T03:55:41;5.70;99.90
46608;DHT22;32330;51.936;7.184;2023-12-20T03:58:08;5.70;99.90
46608;DHT22;32330;51.936;7.184;2023-12-20T04:00:35;5.70;99.90
46608;DHT22;32330;51.936;7.184;2023-12-20T04:03:02;5.70;99.90
46608;DHT22;32330;51.936;7.184;2023-12-20T04:05:30;5.70;99.90
46608;DHT22;32330;51.936;7.184;2023-12-20T04:07:57;5.70;99.90
46608;DHT22;32330;51.936;7.184;2023-12-20T04:10:24;5.70;99.90
46608;DHT22;32330;51.936;7.184;2023-12-20T04:12:51;5.70;99.90
46608;DHT22;32330;51.936;7.184;2023-12-20T04:15:18;5.70;99.90
46608;DHT22;32330;51.936;7.184;2023-12-20T04:17:45;5.70;99.90
46608;DHT22;32330;51.936;7.184;2023-12-20T04:20:12;5.70;99.90
46608;DHT22;32330;51.936;7.184;2023-12-20T04:22:40;5.70;99.90
46608;DHT22;32330;51.936;7.184;2023-12-20T04:25:08;5.70;99.90
46608;DHT22;32330;51.936;7.184;2023-12-20T04:27:35;5.70;99.90
46608;DHT22;32330;51.936;7.184;2023-12-20T04:30:02;5.70;99.90
46608;DHT22;32330;51.936;7.184;2023-12-20T04:32:31;5.70;99.90
46608;DHT22;32330;51.936;7.184;2023-12-20T04:34:58;5.80;99.90
46608;DHT22;32330;51.936;7.184;2023-12-20T04:37:25;5.70;99.90
46608;DHT22;32330;51.936;7.184;2023-12-20T04:39:53;5.70;99.90
46608;DHT22;32330;51.936;7.184;2023-12-20T04:42:20;5.70;99.90
46608;DHT22;32330;51.936;7.184;2023-12-20T04:44:47;5.70;99.90
46608;DHT22;32330;51.936;7.184;2023-12-20T04:47:14;5.70;99.90
46608;DHT22;32330;51.936;7.184;2023-12-20T04:49:41;5.80;99.90
46608;DHT22;32330;51.936;7.184;2023-12-20T04:52:07;5.80;99.90
46608;DHT22;32330;51.936;7.184;2023-12-20T04:54:34;5.80;99.90
46608;DHT22;32330;51.936;7.184;2023-12-20T04:57:03;5.80;99.90
46608;DHT22;32330;51.936;7.184;2023-12-20T04:59:30;5.80;99.90
46608;DHT22;32330;51.936;7.184;2023-12-20T05:01:57;5.80;99.90
46608;DHT22;32330;51.936;7.184;2023-12-20T05:04:24;5.80;99.90
46608;DHT22;32330;51.936;7.184;2023-12-20T05:06:51;5.80;99.90
46608;DHT22;32330;51.936;7.184;2023-12-20T05:09:17;5.80;99.90
46608;DHT22;32330;51.936;7.184;2023-12-20T05:11:44;5.80;99.90
46608;DHT22;32330;51.936;7.184;2023-12-20T05:14:13;5.80;99.90
46608;DHT22;32330;51.936;7.184;2023-12-20T05:16:40;5.80;99.90
46608;DHT22;32330;51.936;7.184;2023-12-20T05:19:06;5.80;99.90
46608;DHT22;32330;51.936;7.184;2023-12-20T05:21:33;5.80;99.90
46608;DHT22;32330;51.936;7.184;2023-12-20T05:24:01;5.80;99.90
46608;DHT22;32330;51.936;7.184;2023-12-20T05:26:28;5.80;99.90
46608;DHT22;32330;51.936;7.184;2023-12-20T05:28:56;5.90;99.90
46608;DHT22;32330;51.936;7.184;2023-12-20T05:31:24;5.90;99.90
46608;DHT22;32330;51.936;7.184;2023-12-20T05:33:51;5.80;99.90
46608;DHT22;32330;51.936;7.184;2023-12-20T05:36:18;5.90;99.90
46608;DHT22;32330;51.936;7.184;2023-12-20T05:38:45;5.90;99.90
46608;DHT22;32330;51.936;7.184;2023-12-20T05:41:12;5.90;99.90
46608;DHT22;32330;51.936;7.184;2023-12-20T05:43:39;5.90;99.90
46608;DHT22;32330;51.936;7.184;2023-12-20T05:46:06;5.90;99.90
46608;DHT22;32330;51.936;7.184;2023-12-20T05:48:34;5.90;99.90
46608;DHT22;32330;51.936;7.184;2023-12-20T05:51:02;5.90;99.90
46608;DHT22;32330;51.936;7.184;2023-12-20T05:53:29;5.90;99.90
46608;DHT22;32330;51.936;7.184;2023-12-20T05:55:55;5.90;99.90
46608;DHT22;32330;51.936;7.184;2023-12-20T05:58:22;5.90;99.90
46608;DHT22;32330;51.936;7.184;2023-12-20T06:00:49;5.90;99.90
46608;DHT22;32330;51.936;7.184;2023-12-20T06:03:16;5.90;99.90
46608;DHT22;32330;51.936;7.184;2023-12-20T06:05:44;5.90;99.90
46608;DHT22;32330;51.936;7.184;2023-12-20T06:08:11;5.90;99.90
46608;DHT22;32330;51.936;7.184;2023-12-20T06:10:39;5.90;99.90
46608;DHT22;32330;51.936;7.184;2023-12-20T06:13:05;5.90;99.90
46608;DHT22;32330;51.936;7.184;2023-12-20T06:15:33;6.00;99.90
46608;DHT22;32330;51.936;7.184;2023-12-20T06:18:01;6.00;99.90
46608;DHT22;32330;51.936;7.184;2023-12-20T06:20:28;6.00;99.90
46608;DHT22;32330;51.936;7.184;2023-12-20T06:22:56;6.00;99.90
46608;DHT22;32330;51.936;7.184;2023-12-20T06:25:23;6.00;99.90
46608;DHT22;32330;51.936;7.184;2023-12-20T06:27:50;6.00;99.90
46608;DHT22;32330;51.936;7.184;2023-12-20T06:30:17;6.00;99.90
46608;DHT22;32330;51.936;7.184;2023-12-20T06:32:44;6.00;99.90
46608;DHT22;32330;51.936;7.184;2023-12-20T06:35:12;6.00;99.90
46608;DHT22;32330;51.936;7.184;2023-12-20T06:37:39;6.00;99.90
46608;DHT22;32330;51.936;7.184;2023-12-20T06:40:10;6.00;99.90
46608;DHT22;32330;51.936;7.184;2023-12-20T06:42:37;6.00;99.90
46608;DHT22;32330;51.936;7.184;2023-12-20T06:45:04;6.00;99.90
46608;DHT22;32330;51.936;7.184;2023-12-20T06:47:32;6.00;99.90
46608;DHT22;32330;51.936;7.184;2023-12-20T06:49:59;6.00;99.90
46608;DHT22;32330;51.936;7.184;2023-12-20T06:52:26;6.10;99.90
46608;DHT22;32330;51.936;7.184;2023-12-20T06:54:53;6.10;99.90
46608;DHT22;32330;51.936;7.184;2023-12-20T06:57:21;6.10;99.90
46608;DHT22;32330;51.936;7.184;2023-12-20T06:59:49;6.10;99.90
46608;DHT22;32330;51.936;7.184;2023-12-20T07:02:17;6.10;99.90
46608;DHT22;32330;51.936;7.184;2023-12-20T07:04:44;6.10;99.90
46608;DHT22;32330;51.936;7.184;2023-12-20T07:07:11;6.10;99.90
46608;DHT22;32330;51.936;7.184;2023-12-20T07:09:38;6.10;99.90
46608;DHT22;32330;51.936;7.184;2023-12-20T07:12:08;6.20;99.90
46608;DHT22;32330;51.936;7.184;2023-12-20T07:14:36;6.10;99.90
46608;DHT22;32330;51.936;7.184;2023-12-20T07:17:03;6.10;99.90
46608;DHT22;32330;51.936;7.184;2023-12-20T07:19:30;6.20;99.90
46608;DHT22;32330;51.936;7.184;2023-12-20T07:21:58;6.10;99.90
46608;DHT22;32330;51.936;7.184;2023-12-20T07:24:25;6.20;99.90
46608;DHT22;32330;51.936;7.184;2023-12-20T07:26:51;6.20;99.90
46608;DHT22;32330;51.936;7.184;2023-12-20T07:29:18;6.20;99.90
46608;DHT22;32330;51.936;7.184;2023-12-20T07:31:47;6.20;99.90
46608;DHT22;32330;51.936;7.184;2023-12-20T07:34:13;6.20;99.90
46608;DHT22;32330;51.936;7.184;2023-12-20T07:36:40;6.20;99.90
46608;DHT22;32330;51.936;7.184;2023-12-20T07:39:07;6.20;99.90
46608;DHT22;32330;51.936;7.184;2023-12-20T07:41:34;6.20;99.90
46608;DHT22;32330;51.936;7.184;2023-12-20T07:44:01;6.20;99.90
46608;DHT22;32330;51.936;7.184;2023-12-20T07:46:28;6.30;99.90
46608;DHT22;32330;51.936;7.184;2023-12-20T07:48:56;6.30;99.90
46608;DHT22;32330;51.936;7.184;2023-12-20T07:51:23;6.30;99.90
46608;DHT22;32330;51.936;7.184;2023-12-20T07:53:51;6.30;99.90
46608;DHT22;32330;51.936;7.184;2023-12-20T07:56:19;6.30;99.90
46608;DHT22;32330;51.936;7.184;2023-12-20T07:58:46;6.40;99.90
46608;DHT22;32330;51.936;7.184;2023-12-20T08:01:15;6.40;99.90
46608;DHT22;32330;51.936;7.184;2023-12-20T08:03:42;6.40;99.90
46608;DHT22;32330;51.936;7.184;2023-12-20T08:06:10;6.40;99.90
46608;DHT22;32330;51.936;7.184;2023-12-20T08:08:37;6.40;99.90
46608;DHT22;32330;51.936;7.184;2023-12-20T08:11:04;6.50;99.90
46608;DHT22;32330;51.936;7.184;2023-12-20T08:13:31;6.50;99.90
46608;DHT22;32330;51.936;7.184;2023-12-20T08:15:58;6.50;99.90
46608;DHT22;32330;51.936;7.184;2023-12-20T08:18:25;6.50;99.90
46608;DHT22;32330;51.936;7.184;2023-12-20T08:20:51;6.50;99.90
46608;DHT22;32330;51.936;7.184;2023-12-20T08:23:21;6.50;99.90
46608;DHT22;32330;51.936;7.184;2023-12-20T08:25:47;6.50;99.90
46608;DHT22;32330;51.936;7.184;2023-12-20T08:28:15;6.50;99.90
46608;DHT22;32330;51.936;7.184;2023-12-20T08:30:42;6.50;99.90
46608;DHT22;32330;51.936;7.184;2023-12-20T08:33:09;6.60;99.90
46608;DHT22;32330;51.936;7.184;2023-12-20T08:35:38;6.60;99.90
46608;DHT22;32330;51.936;7.184;2023-12-20T08:38:05;6.60;99.90
46608;DHT22;32330;51.936;7.184;2023-12-20T08:40:34;6.60;99.90
46608;DHT22;32330;51.936;7.184;2023-12-20T08:43:01;6.60;99.90
46608;DHT22;32330;51.936;7.184;2023-12-20T08:45:28;6.60;99.90
46608;DHT22;32330;51.936;7.184;2023-12-20T08:47:55;6.60;99.90
46608;DHT22;32330;51.936;7.184;2023-12-20T08:50:21;6.60;99.90
46608;DHT22;32330;51.936;7.184;2023-12-20T08:52:48;6.60;99.90
46608;DHT22;32330;51.936;7.184;2023-12-20T08:55:15;6.60;99.90
46608;DHT22;32330;51.936;7.184;2023-12-20T08:57:45;6.60;99.90
46608;DHT22;32330;51.936;7.184;2023-12-20T09:00:13;6.60;99.90
46608;DHT22;32330;51.936;7.184;2023-12-20T09:02:40;6.60;99.90
46608;DHT22;32330;51.936;7.184;2023-12-20T09:05:08;6.70;99.90
46608;DHT22;32330;51.936;7.184;2023-12-20T09:07:35;6.70;99.90
46608;DHT22;32330;51.936;7.184;2023-12-20T09:10:03;6.70;99.90
46608;DHT22;32330;51.936;7.184;2023-12-20T09:12:31;6.70;99.90
46608;DHT22;32330;51.936;7.184;2023-12-20T09:15:00;6.70;99.90
46608;DHT22;32330;51.936;7.184;2023-12-20T09:17:28;6.70;99.90
46608;DHT22;32330;51.936;7.184;2023-12-20T09:19:55;6.70;99.90
46608;DHT22;32330;51.936;7.184;2023-12-20T09:22:22;6.70;99.90
46608;DHT22;32330;51.936;7.184;2023-12-20T09:24:49;6.70;99.90
46608;DHT22;32330;51.936;7.184;2023-12-20T09:27:16;6.80;99.90
46608;DHT22;32330;51.936;7.184;2023-12-20T09:29:43;6.80;99.90
46608;DHT22;32330;51.936;7.184;2023-12-20T09:32:11;6.80;99.90
46608;DHT22;32330;51.936;7.184;2023-12-20T09:34:38;6.80;99.90
46608;DHT22;32330;51.936;7.184;2023-12-20T09:37:05;6.80;99.90
46608;DHT22;32330;51.936;7.184;2023-12-20T09:39:33;6.90;99.90
46608;DHT22;32330;51.936;7.184;2023-12-20T09:42:01;6.90;99.90
46608;DHT22;32330;51.936;7.184;2023-12-20T09:44:28;6.90;99.90
46608;DHT22;32330;51.936;7.184;2023-12-20T09:46:56;7.00;99.90
46608;DHT22;32330;51.936;7.184;2023-12-20T09:49:25;7.00;99.90
46608;DHT22;32330;51.936;7.184;2023-12-20T09:51:54;7.00;99.90
46608;DHT22;32330;51.936;7.184;2023-12-20T09:54:22;7.00;99.90
46608;DHT22;32330;51.936;7.184;2023-12-20T09:56:50;7.00;99.90
46608;DHT22;32330;51.936;7.184;2023-12-20T09:59:17;7.10;99.90
46608;DHT22;32330;51.936;7.184;2023-12-20T10:01:44;7.10;99.90
46608;DHT22;32330;51.936;7.184;2023-12-20T10:04:13;7.10;99.90
46608;DHT22;32330;51.936;7.184;2023-12-20T10:06:42;7.10;99.90
46608;DHT22;32330;51.936;7.184;2023-12-20T10:09:09;7.10;99.90
46608;DHT22;32330;51.936;7.184;2023-12-20T10:11:37;7.10;99.90
46608;DHT22;32330;51.936;7.184;2023-12-20T10:14:04;7.10;99.90
46608;DHT22;32330;51.936;7.184;2023-12-20T10:16:32;7.20;99.90
46608;DHT22;32330;51.936;7.184;2023-12-20T10:18:59;7.20;99.90
46608;DHT22;32330;51.936;7.184;2023-12-20T10:21:27;7.20;99.90
46608;DHT22;32330;51.936;7.184;2023-12-20T10:23:55;7.20;99.90
46608;DHT22;32330;51.936;7.184;2023-12-20T10:26:23;7.20;99.90
46608;DHT22;32330;51.936;7.184;2023-12-20T10:28:51;7.10;99.90
46608;DHT22;32330;51.936;7.184;2023-12-20T10:31:28;7.20;99.90
46608;DHT22;32330;51.936;7.184;2023-12-20T10:33:57;7.10;99.90
46608;DHT22;32330;51.936;7.184;2023-12-20T10:36:25;7.10;99.90
46608;DHT22;32330;51.936;7.184;2023-12-20T10:38:55;7.10;99.90
46608;DHT22;32330;51.936;7.184;2023-12-20T10:41:25;7.00;99.90
46608;DHT22;32330;51.936;7.184;2023-12-20T10:43:56;7.00;99.90
46608;DHT22;32330;51.936;7.184;2023-12-20T10:46:23;7.00;99.90
46608;DHT22;32330;51.936;7.184;2023-12-20T10:48:53;7.00;99.90
46608;DHT22;32330;51.936;7.184;2023-12-20T10:51:20;7.00;99.90
46608;DHT22;32330;51.936;7.184;2023-12-20T10:53:48;7.00;99.90
46608;DHT22;32330;51.936;7.184;2023-12-20T10:56:17;7.00;99.90
46608;DHT22;32330;51.936;7.184;2023-12-20T10:58:45;7.00;99.90
46608;DHT22;32330;51.936;7.184;2023-12-20T11:01:14;7.00;99.90
46608;DHT22;32330;51.936;7.184;2023-12-20T11:03:49;7.10;99.90
46608;DHT22;32330;51.936;7.184;2023-12-20T11:06:29;7.20;99.90
46608;DHT22;32330;51.936;7.184;2023-12-20T11:09:06;7.20;99.90
46608;DHT22;32330;51.936;7.184;2023-12-20T11:11:52;7.20;99.90
46608;DHT22;32330;51.936;7.184;2023-12-20T11:14:25;7.20;99.90
46608;DHT22;32330;51.936;7.184;2023-12-20T11:17:06;7.20;99.90
46608;DHT22;32330;51.936;7.184;2023-12-20T11:19:35;7.20;99.90
46608;DHT22;32330;51.936;7.184;2023-12-20T11:22:03;7.20;99.90
46608;DHT22;32330;51.936;7.184;2023-12-20T11:24:31;7.30;99.90
46608;DHT22;32330;51.936;7.184;2023-12-20T11:27:01;7.30;99.90
46608;DHT22;32330;51.936;7.184;2023-12-20T11:29:32;7.30;99.90
46608;DHT22;32330;51.936;7.184;2023-12-20T11:32:00;7.30;99.90
46608;DHT22;32330;51.936;7.184;2023-12-20T11:34:28;7.40;99.90
46608;DHT22;32330;51.936;7.184;2023-12-20T11:36:58;7.40;99.90
46608;DHT22;32330;51.936;7.184;2023-12-20T11:39:26;7.50;99.90
46608;DHT22;32330;51.936;7.184;2023-12-20T11:41:55;7.50;99.90
46608;DHT22;32330;51.936;7.184;2023-12-20T11:44:30;7.50;99.90
46608;DHT22;32330;51.936;7.184;2023-12-20T11:46:58;7.50;99.90
46608;DHT22;32330;51.936;7.184;2023-12-20T11:49:25;7.50;99.90
46608;DHT22;32330;51.936;7.184;2023-12-20T11:51:55;7.40;99.90
46608;DHT22;32330;51.936;7.184;2023-12-20T11:54:22;7.40;99.90
46608;DHT22;32330;51.936;7.184;2023-12-20T11:56:49;7.40;99.90
46608;DHT22;32330;51.936;7.184;2023-12-20T11:59:16;7.50;99.90
46608;DHT22;32330;51.936;7.184;2023-12-20T12:01:49;7.50;99.90
46608;DHT22;32330;51.936;7.184;2023-12-20T12:04:16;7.60;99.90
46608;DHT22;32330;51.936;7.184;2023-12-20T12:06:44;7.70;99.90
46608;DHT22;32330;51.936;7.184;2023-12-20T12:09:11;7.70;99.90
46608;DHT22;32330;51.936;7.184;2023-12-20T12:11:38;7.70;99.90
46608;DHT22;32330;51.936;7.184;2023-12-20T12:14:06;7.60;99.90
46608;DHT22;32330;51.936;7.184;2023-12-20T12:16:33;7.70;99.90
46608;DHT22;32330;51.936;7.184;2023-12-20T12:19:01;7.60;99.90
46608;DHT22;32330;51.936;7.184;2023-12-20T12:21:30;7.70;99.90
46608;DHT22;32330;51.936;7.184;2023-12-20T12:24:06;7.70;99.90
46608;DHT22;32330;51.936;7.184;2023-12-20T12:26:33;7.80;99.90
46608;DHT22;32330;51.936;7.184;2023-12-20T12:29:00;7.90;99.90
46608;DHT22;32330;51.936;7.184;2023-12-20T12:31:28;7.90;99.90
46608;DHT22;32330;51.936;7.184;2023-12-20T12:33:56;7.90;99.90
46608;DHT22;32330;51.936;7.184;2023-12-20T12:36:24;8.00;99.90
46608;DHT22;32330;51.936;7.184;2023-12-20T12:38:51;8.10;99.90
46608;DHT22;32330;51.936;7.184;2023-12-20T12:41:18;8.10;99.90
46608;DHT22;32330;51.936;7.184;2023-12-20T12:43:45;8.00;99.90
46608;DHT22;32330;51.936;7.184;2023-12-20T12:46:12;8.10;99.90
46608;DHT22;32330;51.936;7.184;2023-12-20T12:48:39;8.10;99.90
46608;DHT22;32330;51.936;7.184;2023-12-20T12:51:06;8.10;99.90
46608;DHT22;32330;51.936;7.184;2023-12-20T12:53:39;8.20;99.90
46608;DHT22;32330;51.936;7.184;2023-12-20T12:56:07;8.20;99.90
46608;DHT22;32330;51.936;7.184;2023-12-20T12:58:34;8.20;99.90
46608;DHT22;32330;51.936;7.184;2023-12-20T13:01:01;8.20;99.90
46608;DHT22;32330;51.936;7.184;2023-12-20T13:03:29;8.10;99.90
46608;DHT22;32330;51.936;7.184;2023-12-20T13:05:56;8.10;99.90
46608;DHT22;32330;51.936;7.184;2023-12-20T13:08:22;8.10;99.90
46608;DHT22;32330;51.936;7.184;2023-12-20T13:10:51;8.10;99.90
46608;DHT22;32330;51.936;7.184;2023-12-20T13:13:18;8.10;99.90
46608;DHT22;32330;51.936;7.184;2023-12-20T13:15:45;8.10;99.90
46608;DHT22;32330;51.936;7.184;2023-12-20T13:18:16;8.10;99.90
46608;DHT22;32330;51.936;7.184;2023-12-20T13:20:44;8.10;99.90
46608;DHT22;32330;51.936;7.184;2023-12-20T13:23:11;8.10;99.90
46608;DHT22;32330;51.936;7.184;2023-12-20T13:25:38;8.10;99.90
46608;DHT22;32330;51.936;7.184;2023-12-20T13:28:06;8.10;99.90
46608;DHT22;32330;51.936;7.184;2023-12-20T13:30:34;8.10;99.90
46608;DHT22;32330;51.936;7.184;2023-12-20T13:33:01;8.10;99.90
46608;DHT22;32330;51.936;7.184;2023-12-20T13:35:28;8.10;99.90
46608;DHT22;32330;51.936;7.184;2023-12-20T13:37:55;8.20;99.90
46608;DHT22;32330;51.936;7.184;2023-12-20T13:40:23;8.10;99.90
46608;DHT22;32330;51.936;7.184;2023-12-20T13:42:50;8.10;99.90
46608;DHT22;32330;51.936;7.184;2023-12-20T13:45:18;8.10;99.90
46608;DHT22;32330;51.936;7.184;2023-12-20T13:47:45;8.10;99.90
46608;DHT22;32330;51.936;7.184;2023-12-20T13:50:12;8.10;99.90
46608;DHT22;32330;51.936;7.184;2023-12-20T13:52:39;8.10;99.90
46608;DHT22;32330;51.936;7.184;2023-12-20T13:55:06;8.00;99.90
46608;DHT22;32330;51.936;7.184;2023-12-20T13:57:34;8.00;99.90
46608;DHT22;32330;51.936;7.184;2023-12-20T14:00:04;8.00;99.90
46608;DHT22;32330;51.936;7.184;2023-12-20T14:02:35;8.00;99.90
46608;DHT22;32330;51.936;7.184;2023-12-20T14:05:02;8.00;99.90
46608;DHT22;32330;51.936;7.184;2023-12-20T14:07:30;8.00;99.90
46608;DHT22;32330;51.936;7.184;2023-12-20T14:09:56;8.00;99.90
46608;DHT22;32330;51.936;7.184;2023-12-20T14:12:25;8.00;99.90
46608;DHT22;32330;51.936;7.184;2023-12-20T14:14:51;7.90;99.90
46608;DHT22;32330;51.936;7.184;2023-12-20T14:17:20;7.90;99.90
46608;DHT22;32330;51.936;7.184;2023-12-20T14:19:48;7.90;99.90
46608;DHT22;32330;51.936;7.184;2023-12-20T14:22:15;7.90;99.90
46608;DHT22;32330;51.936;7.184;2023-12-20T14:24:42;7.90;99.90
46608;DHT22;32330;51.936;7.184;2023-12-20T14:27:10;7.90;99.90
46608;DHT22;32330;51.936;7.184;2023-12-20T14:29:37;7.90;99.90
46608;DHT22;32330;51.936;7.184;2023-12-20T14:32:05;7.90;99.90
46608;DHT22;32330;51.936;7.184;2023-12-20T14:34:34;7.80;99.90
46608;DHT22;32330;51.936;7.184;2023-12-20T14:37:04;7.80;99.90
46608;DHT22;32330;51.936;7.184;2023-12-20T14:39:31;7.80;99.90
46608;DHT22;32330;51.936;7.184;2023-12-20T14:41:58;7.80;99.90
46608;DHT22;32330;51.936;7.184;2023-12-20T14:44:25;7.80;99.90
46608;DHT22;32330;51.936;7.184;2023-12-20T14:46:52;7.80;99.90
46608;DHT22;32330;51.936;7.184;2023-12-20T14:49:19;7.80;99.90
46608;DHT22;32330;51.936;7.184;2023-12-20T14:51:45;7.80;99.90
46608;DHT22;32330;51.936;7.184;2023-12-20T14:54:14;7.80;99.90
46608;DHT22;32330;51.936;7.184;2023-12-20T14:56:41;7.80;99.90
46608;DHT22;32330;51.936;7.184;2023-12-20T14:59:08;7.80;99.90
46608;DHT22;32330;51.936;7.184;2023-12-20T15:01:35;7.80;99.90
46608;DHT22;32330;51.936;7.184;2023-12-20T15:04:02;7.70;99.90
46608;DHT22;32330;51.936;7.184;2023-12-20T15:06:29;7.80;99.90
46608;DHT22;32330;51.936;7.184;2023-12-20T15:08:57;7.70;99.90
46608;DHT22;32330;51.936;7.184;2023-12-20T15:11:25;7.70;99.90
46608;DHT22;32330;51.936;7.184;2023-12-20T15:13:52;7.70;99.90
46608;DHT22;32330;51.936;7.184;2023-12-20T15:16:22;7.70;99.90
46608;DHT22;32330;51.936;7.184;2023-12-20T15:18:48;7.70;99.90
46608;DHT22;32330;51.936;7.184;2023-12-20T15:21:16;7.70;99.90
46608;DHT22;32330;51.936;7.184;2023-12-20T15:23:43;7.70;99.90
46608;DHT22;32330;51.936;7.184;2023-12-20T15:26:18;7.70;99.90
46608;DHT22;32330;51.936;7.184;2023-12-20T15:28:46;7.70;99.90
46608;DHT22;32330;51.936;7.184;2023-12-20T15:31:13;7.60;99.90
46608;DHT22;32330;51.936;7.184;2023-12-20T15:33:40;7.60;99.90
46608;DHT22;32330;51.936;7.184;2023-12-20T15:36:07;7.60;99.90
46608;DHT22;32330;51.936;7.184;2023-12-20T15:38:34;7.60;99.90
46608;DHT22;32330;51.936;7.184;2023-12-20T15:41:01;7.60;99.90
46608;DHT22;32330;51.936;7.184;2023-12-20T15:43:28;7.60;99.90
46608;DHT22;32330;51.936;7.184;2023-12-20T15:45:57;7.60;99.90
46608;DHT22;32330;51.936;7.184;2023-12-20T15:48:23;7.60;99.90